sensor_id;sensor_type;location;lat;lon;timestamp;P1;durP1;ratioP1;P2;durP2;ratioP2
12437;SDS011;6283;51.330;12.374;2023-08-21T00:02:25;6.18;;;3.50;;
12437;SDS011;6283;51.330;12.374;2023-08-21T00:04:52;3.83;;;3.53;;
12437;SDS011;6283;51.330;12.374;2023-08-21T00:07:18;3.88;;;3.25;;
12437;SDS011;6283;51.330;12.374;2023-08-21T00:09:44;3.30;;;3.00;;
12437;SDS011;6283;51.330;12.374;2023-08-21T00:12:10;4.22;;;3.78;;
12437;SDS011;6283;51.330;12.374;2023-08-21T00:14:35;4.97;;;3.20;;
12437;SDS011;6283;51.330;12.374;2023-08-21T00:17:01;3.95;;;3.42;;
12437;SDS011;6283;51.330;12.374;2023-08-21T00:19:31;4.15;;;3.00;;
12437;SDS011;6283;51.330;12.374;2023-08-21T00:21:57;3.58;;;3.20;;
12437;SDS011;6283;51.330;12.374;2023-08-21T00:24:22;2.85;;;2.65;;
12437;SDS011;6283;51.330;12.374;2023-08-21T00:26:48;3.78;;;3.10;;
12437;SDS011;6283;51.330;12.374;2023-08-21T00:29:14;2.83;;;2.60;;
12437;SDS011;6283;51.330;12.374;2023-08-21T00:31:39;5.22;;;3.50;;
12437;SDS011;6283;51.330;12.374;2023-08-21T00:34:05;3.38;;;3.08;;
12437;SDS011;6283;51.330;12.374;2023-08-21T00:36:31;4.00;;;3.60;;
12437;SDS011;6283;51.330;12.374;2023-08-21T00:38:56;3.10;;;2.80;;
12437;SDS011;6283;51.330;12.374;2023-08-21T00:41:22;3.30;;;2.92;;
12437;SDS011;6283;51.330;12.374;2023-08-21T00:43:47;2.88;;;2.65;;
12437;SDS011;6283;51.330;12.374;2023-08-21T00:46:13;3.92;;;2.83;;
12437;SDS011;6283;51.330;12.374;2023-08-21T00:48:40;3.30;;;3.00;;
12437;SDS011;6283;51.330;12.374;2023-08-21T00:51:06;3.60;;;2.67;;
12437;SDS011;6283;51.330;12.374;2023-08-21T00:53:32;3.45;;;2.92;;
12437;SDS011;6283;51.330;12.374;2023-08-21T00:55:58;3.42;;;2.90;;
12437;SDS011;6283;51.330;12.374;2023-08-21T00:58:24;3.42;;;3.13;;
12437;SDS011;6283;51.330;12.374;2023-08-21T01:00:50;3.00;;;2.72;;
12437;SDS011;6283;51.330;12.374;2023-08-21T01:03:17;3.50;;;3.20;;
12437;SDS011;6283;51.330;12.374;2023-08-21T01:05:43;3.33;;;3.03;;
12437;SDS011;6283;51.330;12.374;2023-08-21T01:08:18;4.50;;;3.17;;
12437;SDS011;6283;51.330;12.374;2023-08-21T01:15:55;3.28;;;2.92;;
12437;SDS011;6283;51.330;12.374;2023-08-21T01:18:22;4.53;;;3.22;;
12437;SDS011;6283;51.330;12.374;2023-08-21T01:20:49;3.70;;;3.28;;
12437;SDS011;6283;51.330;12.374;2023-08-21T01:25:55;3.53;;;3.22;;
12437;SDS011;6283;51.330;12.374;2023-08-21T01:28:20;3.78;;;3.17;;
12437;SDS011;6283;51.330;12.374;2023-08-21T01:30:46;4.28;;;3.33;;
12437;SDS011;6283;51.330;12.374;2023-08-21T01:33:14;6.57;;;3.40;;
12437;SDS011;6283;51.330;12.374;2023-08-21T01:35:41;4.40;;;3.28;;
12437;SDS011;6283;51.330;12.374;2023-08-21T01:38:07;4.10;;;3.30;;
12437;SDS011;6283;51.330;12.374;2023-08-21T01:40:33;3.65;;;3.30;;
12437;SDS011;6283;51.330;12.374;2023-08-21T01:42:58;4.00;;;3.60;;
12437;SDS011;6283;51.330;12.374;2023-08-21T01:45:24;4.68;;;3.47;;
12437;SDS011;6283;51.330;12.374;2023-08-21T01:47:50;3.83;;;3.45;;
12437;SDS011;6283;51.330;12.374;2023-08-21T01:50:15;4.00;;;3.25;;
12437;SDS011;6283;51.330;12.374;2023-08-21T01:52:41;4.10;;;3.55;;
12437;SDS011;6283;51.330;12.374;2023-08-21T01:55:07;4.88;;;3.67;;
12437;SDS011;6283;51.330;12.374;2023-08-21T01:57:33;5.55;;;3.38;;
12437;SDS011;6283;51.330;12.374;2023-08-21T01:59:59;5.38;;;3.22;;
12437;SDS011;6283;51.330;12.374;2023-08-21T02:02:24;3.58;;;3.28;;
12437;SDS011;6283;51.330;12.374;2023-08-21T02:04:50;3.80;;;3.50;;
12437;SDS011;6283;51.330;12.374;2023-08-21T02:07:16;4.43;;;3.28;;
12437;SDS011;6283;51.330;12.374;2023-08-21T02:09:41;4.18;;;3.35;;
12437;SDS011;6283;51.330;12.374;2023-08-21T02:12:07;4.63;;;3.40;;
12437;SDS011;6283;51.330;12.374;2023-08-21T02:14:32;5.22;;;3.17;;
12437;SDS011;6283;51.330;12.374;2023-08-21T02:16:58;4.10;;;3.58;;
12437;SDS011;6283;51.330;12.374;2023-08-21T02:19:24;4.68;;;3.45;;
12437;SDS011;6283;51.330;12.374;2023-08-21T02:21:50;4.15;;;3.50;;
12437;SDS011;6283;51.330;12.374;2023-08-21T02:24:15;4.18;;;3.50;;
12437;SDS011;6283;51.330;12.374;2023-08-21T02:26:42;4.03;;;3.17;;
12437;SDS011;6283;51.330;12.374;2023-08-21T02:29:10;3.92;;;3.58;;
12437;SDS011;6283;51.330;12.374;2023-08-21T02:31:35;4.35;;;3.38;;
12437;SDS011;6283;51.330;12.374;2023-08-21T02:34:01;5.13;;;3.85;;
12437;SDS011;6283;51.330;12.374;2023-08-21T02:36:26;4.07;;;3.78;;
12437;SDS011;6283;51.330;12.374;2023-08-21T02:38:52;5.40;;;3.58;;
12437;SDS011;6283;51.330;12.374;2023-08-21T02:41:18;3.65;;;3.35;;
12437;SDS011;6283;51.330;12.374;2023-08-21T02:43:43;7.68;;;3.75;;
12437;SDS011;6283;51.330;12.374;2023-08-21T02:46:09;4.75;;;3.60;;
12437;SDS011;6283;51.330;12.374;2023-08-21T02:48:34;4.40;;;3.85;;
12437;SDS011;6283;51.330;12.374;2023-08-21T02:51:00;4.70;;;4.00;;
12437;SDS011;6283;51.330;12.374;2023-08-21T02:53:27;4.95;;;4.07;;
12437;SDS011;6283;51.330;12.374;2023-08-21T02:55:53;4.10;;;3.80;;
12437;SDS011;6283;51.330;12.374;2023-08-21T02:58:19;4.20;;;3.70;;
12437;SDS011;6283;51.330;12.374;2023-08-21T03:00:44;6.03;;;4.00;;
12437;SDS011;6283;51.330;12.374;2023-08-21T03:03:10;4.80;;;4.40;;
12437;SDS011;6283;51.330;12.374;2023-08-21T03:05:36;4.57;;;3.53;;
12437;SDS011;6283;51.330;12.374;2023-08-21T03:08:02;4.75;;;3.78;;
12437;SDS011;6283;51.330;12.374;2023-08-21T03:10:27;4.75;;;4.13;;
12437;SDS011;6283;51.330;12.374;2023-08-21T03:12:58;4.30;;;4.00;;
12437;SDS011;6283;51.330;12.374;2023-08-21T03:15:24;4.63;;;4.05;;
12437;SDS011;6283;51.330;12.374;2023-08-21T03:17:50;5.70;;;4.20;;
12437;SDS011;6283;51.330;12.374;2023-08-21T03:20:15;6.07;;;4.22;;
12437;SDS011;6283;51.330;12.374;2023-08-21T03:22:42;4.97;;;4.45;;
12437;SDS011;6283;51.330;12.374;2023-08-21T03:25:08;6.03;;;4.43;;
12437;SDS011;6283;51.330;12.374;2023-08-21T03:27:34;6.20;;;3.92;;
12437;SDS011;6283;51.330;12.374;2023-08-21T03:30:04;4.75;;;3.80;;
12437;SDS011;6283;51.330;12.374;2023-08-21T03:32:33;4.75;;;4.05;;
12437;SDS011;6283;51.330;12.374;2023-08-21T03:34:59;4.55;;;4.15;;
12437;SDS011;6283;51.330;12.374;2023-08-21T03:37:24;5.00;;;4.55;;
12437;SDS011;6283;51.330;12.374;2023-08-21T03:39:50;4.70;;;4.25;;
12437;SDS011;6283;51.330;12.374;2023-08-21T03:42:16;6.60;;;4.53;;
12437;SDS011;6283;51.330;12.374;2023-08-21T03:44:41;5.78;;;4.70;;
12437;SDS011;6283;51.330;12.374;2023-08-21T03:47:07;5.80;;;4.20;;
12437;SDS011;6283;51.330;12.374;2023-08-21T03:49:33;5.13;;;4.68;;
12437;SDS011;6283;51.330;12.374;2023-08-21T03:51:59;6.47;;;4.82;;
12437;SDS011;6283;51.330;12.374;2023-08-21T03:54:24;6.60;;;4.05;;
12437;SDS011;6283;51.330;12.374;2023-08-21T03:56:50;4.80;;;3.95;;
12437;SDS011;6283;51.330;12.374;2023-08-21T03:59:15;5.53;;;4.18;;
12437;SDS011;6283;51.330;12.374;2023-08-21T04:01:41;4.43;;;3.53;;
12437;SDS011;6283;51.330;12.374;2023-08-21T04:04:06;5.68;;;3.90;;
12437;SDS011;6283;51.330;12.374;2023-08-21T04:06:32;5.55;;;4.10;;
12437;SDS011;6283;51.330;12.374;2023-08-21T04:08:58;5.13;;;3.83;;
12437;SDS011;6283;51.330;12.374;2023-08-21T04:11:23;4.85;;;4.15;;
12437;SDS011;6283;51.330;12.374;2023-08-21T04:13:49;5.32;;;3.85;;
12437;SDS011;6283;51.330;12.374;2023-08-21T04:16:14;4.22;;;3.78;;
12437;SDS011;6283;51.330;12.374;2023-08-21T04:18:42;4.53;;;4.13;;
12437;SDS011;6283;51.330;12.374;2023-08-21T04:21:08;5.95;;;4.20;;
12437;SDS011;6283;51.330;12.374;2023-08-21T04:23:34;6.15;;;4.07;;
12437;SDS011;6283;51.330;12.374;2023-08-21T04:26:00;4.93;;;4.22;;
12437;SDS011;6283;51.330;12.374;2023-08-21T04:28:27;4.28;;;3.88;;
12437;SDS011;6283;51.330;12.374;2023-08-21T04:30:55;4.75;;;3.88;;
12437;SDS011;6283;51.330;12.374;2023-08-21T04:33:22;5.35;;;4.00;;
12437;SDS011;6283;51.330;12.374;2023-08-21T04:35:52;4.75;;;4.25;;
12437;SDS011;6283;51.330;12.374;2023-08-21T04:38:18;6.30;;;4.60;;
12437;SDS011;6283;51.330;12.374;2023-08-21T04:40:44;4.90;;;4.38;;
12437;SDS011;6283;51.330;12.374;2023-08-21T04:43:09;7.13;;;4.40;;
12437;SDS011;6283;51.330;12.374;2023-08-21T04:45:35;7.18;;;5.00;;
12437;SDS011;6283;51.330;12.374;2023-08-21T04:48:03;5.93;;;5.28;;
12437;SDS011;6283;51.330;12.374;2023-08-21T04:50:29;11.50;;;5.00;;
12437;SDS011;6283;51.330;12.374;2023-08-21T04:52:55;5.72;;;4.38;;
12437;SDS011;6283;51.330;12.374;2023-08-21T04:55:21;5.70;;;4.85;;
12437;SDS011;6283;51.330;12.374;2023-08-21T04:57:46;5.25;;;4.45;;
12437;SDS011;6283;51.330;12.374;2023-08-21T05:00:12;7.00;;;4.95;;
12437;SDS011;6283;51.330;12.374;2023-08-21T05:02:38;7.35;;;4.63;;
12437;SDS011;6283;51.330;12.374;2023-08-21T05:05:04;6.38;;;5.18;;
12437;SDS011;6283;51.330;12.374;2023-08-21T05:07:30;7.13;;;5.13;;
12437;SDS011;6283;51.330;12.374;2023-08-21T05:09:58;6.30;;;5.10;;
12437;SDS011;6283;51.330;12.374;2023-08-21T05:12:25;7.43;;;4.97;;
12437;SDS011;6283;51.330;12.374;2023-08-21T05:14:51;7.35;;;4.95;;
12437;SDS011;6283;51.330;12.374;2023-08-21T05:17:17;7.80;;;5.05;;
12437;SDS011;6283;51.330;12.374;2023-08-21T05:19:42;6.70;;;4.78;;
12437;SDS011;6283;51.330;12.374;2023-08-21T05:22:08;12.23;;;10.30;;
12437;SDS011;6283;51.330;12.374;2023-08-21T05:24:33;6.90;;;5.90;;
12437;SDS011;6283;51.330;12.374;2023-08-21T05:26:59;10.50;;;6.07;;
12437;SDS011;6283;51.330;12.374;2023-08-21T05:29:24;8.25;;;5.80;;
12437;SDS011;6283;51.330;12.374;2023-08-21T05:31:50;10.13;;;6.55;;
12437;SDS011;6283;51.330;12.374;2023-08-21T05:34:16;8.55;;;6.15;;
12437;SDS011;6283;51.330;12.374;2023-08-21T05:36:41;13.18;;;6.35;;
12437;SDS011;6283;51.330;12.374;2023-08-21T05:39:07;11.40;;;6.25;;
12437;SDS011;6283;51.330;12.374;2023-08-21T05:41:33;8.45;;;6.18;;
12437;SDS011;6283;51.330;12.374;2023-08-21T05:43:59;6.55;;;5.90;;
12437;SDS011;6283;51.330;12.374;2023-08-21T05:46:24;6.55;;;5.28;;
12437;SDS011;6283;51.330;12.374;2023-08-21T05:48:50;6.35;;;5.47;;
12437;SDS011;6283;51.330;12.374;2023-08-21T05:51:16;8.50;;;6.20;;
12437;SDS011;6283;51.330;12.374;2023-08-21T05:53:41;8.63;;;6.00;;
12437;SDS011;6283;51.330;12.374;2023-08-21T05:56:07;6.95;;;6.10;;
12437;SDS011;6283;51.330;12.374;2023-08-21T05:58:32;8.15;;;6.28;;
12437;SDS011;6283;51.330;12.374;2023-08-21T06:00:58;9.05;;;5.50;;
12437;SDS011;6283;51.330;12.374;2023-08-21T06:03:24;7.60;;;6.32;;
12437;SDS011;6283;51.330;12.374;2023-08-21T06:05:49;7.45;;;5.93;;
12437;SDS011;6283;51.330;12.374;2023-08-21T06:08:15;6.82;;;5.53;;
12437;SDS011;6283;51.330;12.374;2023-08-21T06:10:41;8.00;;;5.75;;
12437;SDS011;6283;51.330;12.374;2023-08-21T06:13:07;10.15;;;5.95;;
12437;SDS011;6283;51.330;12.374;2023-08-21T06:15:33;8.52;;;5.60;;
12437;SDS011;6283;51.330;12.374;2023-08-21T06:17:58;7.97;;;5.20;;
12437;SDS011;6283;51.330;12.374;2023-08-21T06:20:25;9.15;;;5.93;;
12437;SDS011;6283;51.330;12.374;2023-08-21T06:22:51;8.27;;;5.95;;
12437;SDS011;6283;51.330;12.374;2023-08-21T06:25:16;9.80;;;6.72;;
12437;SDS011;6283;51.330;12.374;2023-08-21T06:27:44;7.13;;;5.97;;
12437;SDS011;6283;51.330;12.374;2023-08-21T06:30:10;8.57;;;5.65;;
12437;SDS011;6283;51.330;12.374;2023-08-21T06:32:36;8.68;;;5.32;;
12437;SDS011;6283;51.330;12.374;2023-08-21T06:35:01;14.52;;;6.30;;
12437;SDS011;6283;51.330;12.374;2023-08-21T06:37:27;6.30;;;5.70;;
12437;SDS011;6283;51.330;12.374;2023-08-21T06:39:52;6.70;;;5.28;;
12437;SDS011;6283;51.330;12.374;2023-08-21T06:42:18;5.53;;;5.03;;
12437;SDS011;6283;51.330;12.374;2023-08-21T06:44:44;9.40;;;5.18;;
12437;SDS011;6283;51.330;12.374;2023-08-21T06:47:09;6.68;;;5.18;;
12437;SDS011;6283;51.330;12.374;2023-08-21T06:49:35;7.47;;;4.97;;
12437;SDS011;6283;51.330;12.374;2023-08-21T06:52:01;6.57;;;5.05;;
12437;SDS011;6283;51.330;12.374;2023-08-21T06:54:27;8.18;;;5.22;;
12437;SDS011;6283;51.330;12.374;2023-08-21T06:56:53;8.18;;;5.15;;
12437;SDS011;6283;51.330;12.374;2023-08-21T06:59:19;7.43;;;5.38;;
12437;SDS011;6283;51.330;12.374;2023-08-21T07:01:44;12.63;;;4.70;;
12437;SDS011;6283;51.330;12.374;2023-08-21T07:04:10;9.50;;;5.13;;
12437;SDS011;6283;51.330;12.374;2023-08-21T07:06:35;8.88;;;5.32;;
12437;SDS011;6283;51.330;12.374;2023-08-21T07:09:01;5.53;;;5.03;;
12437;SDS011;6283;51.330;12.374;2023-08-21T07:11:27;8.32;;;4.82;;
12437;SDS011;6283;51.330;12.374;2023-08-21T07:13:52;6.80;;;4.90;;
12437;SDS011;6283;51.330;12.374;2023-08-21T07:16:18;5.40;;;4.57;;
12437;SDS011;6283;51.330;12.374;2023-08-21T07:18:43;7.28;;;4.90;;
12437;SDS011;6283;51.330;12.374;2023-08-21T07:21:09;7.82;;;5.60;;
12437;SDS011;6283;51.330;12.374;2023-08-21T07:23:35;8.80;;;4.72;;
12437;SDS011;6283;51.330;12.374;2023-08-21T07:26:00;11.27;;;5.90;;
12437;SDS011;6283;51.330;12.374;2023-08-21T07:28:27;7.45;;;5.32;;
12437;SDS011;6283;51.330;12.374;2023-08-21T07:30:55;7.32;;;5.68;;
12437;SDS011;6283;51.330;12.374;2023-08-21T07:33:22;7.65;;;5.63;;
12437;SDS011;6283;51.330;12.374;2023-08-21T07:35:56;7.32;;;4.93;;
12437;SDS011;6283;51.330;12.374;2023-08-21T07:38:26;5.97;;;5.20;;
12437;SDS011;6283;51.330;12.374;2023-08-21T07:41:01;8.27;;;6.38;;
12437;SDS011;6283;51.330;12.374;2023-08-21T07:43:32;6.88;;;5.70;;
12437;SDS011;6283;51.330;12.374;2023-08-21T07:46:01;7.22;;;6.05;;
12437;SDS011;6283;51.330;12.374;2023-08-21T07:48:27;7.28;;;6.25;;
12437;SDS011;6283;51.330;12.374;2023-08-21T07:50:53;13.88;;;6.78;;
12437;SDS011;6283;51.330;12.374;2023-08-21T07:53:19;10.27;;;6.60;;
12437;SDS011;6283;51.330;12.374;2023-08-21T07:55:44;7.53;;;6.63;;
12437;SDS011;6283;51.330;12.374;2023-08-21T07:58:10;9.35;;;6.45;;
12437;SDS011;6283;51.330;12.374;2023-08-21T08:00:36;8.18;;;6.78;;
12437;SDS011;6283;51.330;12.374;2023-08-21T08:03:03;7.50;;;6.63;;
12437;SDS011;6283;51.330;12.374;2023-08-21T08:05:30;9.50;;;7.05;;
12437;SDS011;6283;51.330;12.374;2023-08-21T08:07:56;11.73;;;6.72;;
12437;SDS011;6283;51.330;12.374;2023-08-21T08:10:22;9.38;;;6.45;;
12437;SDS011;6283;51.330;12.374;2023-08-21T08:12:48;11.82;;;7.47;;
12437;SDS011;6283;51.330;12.374;2023-08-21T08:15:14;14.75;;;8.32;;
12437;SDS011;6283;51.330;12.374;2023-08-21T08:17:40;8.05;;;6.70;;
12437;SDS011;6283;51.330;12.374;2023-08-21T08:20:06;9.27;;;6.43;;
12437;SDS011;6283;51.330;12.374;2023-08-21T08:22:32;7.10;;;6.40;;
12437;SDS011;6283;51.330;12.374;2023-08-21T08:24:58;19.85;;;7.10;;
12437;SDS011;6283;51.330;12.374;2023-08-21T08:27:24;8.85;;;6.47;;
12437;SDS011;6283;51.330;12.374;2023-08-21T08:29:50;8.27;;;5.63;;
12437;SDS011;6283;51.330;12.374;2023-08-21T08:32:15;7.65;;;5.38;;
12437;SDS011;6283;51.330;12.374;2023-08-21T08:34:41;9.18;;;6.35;;
12437;SDS011;6283;51.330;12.374;2023-08-21T08:37:06;7.72;;;5.97;;
12437;SDS011;6283;51.330;12.374;2023-08-21T08:39:32;9.77;;;5.70;;
12437;SDS011;6283;51.330;12.374;2023-08-21T08:41:58;6.50;;;4.95;;
12437;SDS011;6283;51.330;12.374;2023-08-21T08:44:30;5.10;;;4.28;;
12437;SDS011;6283;51.330;12.374;2023-08-21T08:46:59;8.57;;;4.90;;
12437;SDS011;6283;51.330;12.374;2023-08-21T08:49:26;9.82;;;4.35;;
12437;SDS011;6283;51.330;12.374;2023-08-21T08:51:51;5.30;;;4.80;;
12437;SDS011;6283;51.330;12.374;2023-08-21T08:54:19;4.75;;;4.07;;
12437;SDS011;6283;51.330;12.374;2023-08-21T08:56:47;7.30;;;4.57;;
12437;SDS011;6283;51.330;12.374;2023-08-21T08:59:13;5.55;;;4.32;;
12437;SDS011;6283;51.330;12.374;2023-08-21T09:01:40;6.40;;;4.50;;
12437;SDS011;6283;51.330;12.374;2023-08-21T09:04:06;7.45;;;4.60;;
12437;SDS011;6283;51.330;12.374;2023-08-21T09:06:32;5.78;;;4.60;;
12437;SDS011;6283;51.330;12.374;2023-08-21T09:08:58;5.97;;;4.80;;
12437;SDS011;6283;51.330;12.374;2023-08-21T09:11:25;6.30;;;5.47;;
12437;SDS011;6283;51.330;12.374;2023-08-21T09:13:52;5.53;;;4.68;;
12437;SDS011;6283;51.330;12.374;2023-08-21T09:16:19;4.93;;;4.43;;
12437;SDS011;6283;51.330;12.374;2023-08-21T09:18:49;6.30;;;4.30;;
12437;SDS011;6283;51.330;12.374;2023-08-21T09:21:19;7.13;;;3.97;;
12437;SDS011;6283;51.330;12.374;2023-08-21T09:23:45;6.03;;;3.80;;
12437;SDS011;6283;51.330;12.374;2023-08-21T09:26:18;7.10;;;3.97;;
12437;SDS011;6283;51.330;12.374;2023-08-21T09:28:48;7.43;;;4.40;;
12437;SDS011;6283;51.330;12.374;2023-08-21T09:31:14;6.00;;;4.28;;
12437;SDS011;6283;51.330;12.374;2023-08-21T09:33:40;5.75;;;4.95;;
12437;SDS011;6283;51.330;12.374;2023-08-21T09:36:06;4.82;;;3.53;;
12437;SDS011;6283;51.330;12.374;2023-08-21T09:38:34;5.72;;;3.67;;
12437;SDS011;6283;51.330;12.374;2023-08-21T09:41:02;5.00;;;4.05;;
12437;SDS011;6283;51.330;12.374;2023-08-21T09:43:28;5.55;;;3.90;;
12437;SDS011;6283;51.330;12.374;2023-08-21T09:45:54;3.95;;;3.55;;
12437;SDS011;6283;51.330;12.374;2023-08-21T09:48:26;5.03;;;3.83;;
12437;SDS011;6283;51.330;12.374;2023-08-21T09:50:52;5.82;;;3.67;;
12437;SDS011;6283;51.330;12.374;2023-08-21T09:53:22;4.30;;;3.85;;
12437;SDS011;6283;51.330;12.374;2023-08-21T09:55:52;4.38;;;3.30;;
12437;SDS011;6283;51.330;12.374;2023-08-21T09:58:19;3.97;;;3.60;;
12437;SDS011;6283;51.330;12.374;2023-08-21T10:00:46;8.82;;;3.50;;
12437;SDS011;6283;51.330;12.374;2023-08-21T10:03:14;4.88;;;4.15;;
12437;SDS011;6283;51.330;12.374;2023-08-21T10:05:44;3.90;;;3.50;;
12437;SDS011;6283;51.330;12.374;2023-08-21T10:08:12;5.18;;;3.60;;
12437;SDS011;6283;51.330;12.374;2023-08-21T10:10:40;7.55;;;4.20;;
12437;SDS011;6283;51.330;12.374;2023-08-21T10:13:07;4.03;;;3.53;;
12437;SDS011;6283;51.330;12.374;2023-08-21T10:15:33;6.88;;;4.13;;
12437;SDS011;6283;51.330;12.374;2023-08-21T10:20:55;5.50;;;3.53;;
12437;SDS011;6283;51.330;12.374;2023-08-21T10:23:30;4.45;;;3.65;;
12437;SDS011;6283;51.330;12.374;2023-08-21T10:25:57;6.97;;;4.05;;
12437;SDS011;6283;51.330;12.374;2023-08-21T10:28:40;4.63;;;3.55;;
12437;SDS011;6283;51.330;12.374;2023-08-21T10:34:06;4.28;;;3.70;;
12437;SDS011;6283;51.330;12.374;2023-08-21T10:39:13;5.20;;;3.30;;
12437;SDS011;6283;51.330;12.374;2023-08-21T10:41:42;4.53;;;3.40;;
12437;SDS011;6283;51.330;12.374;2023-08-21T10:54:55;3.25;;;2.75;;
12437;SDS011;6283;51.330;12.374;2023-08-21T10:57:25;2.90;;;2.67;;
12437;SDS011;6283;51.330;12.374;2023-08-21T11:02:19;5.35;;;3.30;;
12437;SDS011;6283;51.330;12.374;2023-08-21T11:04:45;4.55;;;2.80;;
12437;SDS011;6283;51.330;12.374;2023-08-21T11:07:11;3.10;;;2.80;;
12437;SDS011;6283;51.330;12.374;2023-08-21T11:09:38;3.22;;;2.95;;
12437;SDS011;6283;51.330;12.374;2023-08-21T11:12:07;3.00;;;2.70;;
12437;SDS011;6283;51.330;12.374;2023-08-21T11:14:34;3.13;;;2.92;;
12437;SDS011;6283;51.330;12.374;2023-08-21T11:17:00;3.53;;;2.97;;
12437;SDS011;6283;51.330;12.374;2023-08-21T11:19:26;3.33;;;3.00;;
12437;SDS011;6283;51.330;12.374;2023-08-21T11:21:52;3.58;;;2.83;;
12437;SDS011;6283;51.330;12.374;2023-08-21T11:24:17;2.85;;;2.65;;
12437;SDS011;6283;51.330;12.374;2023-08-21T11:26:43;4.50;;;3.28;;
12437;SDS011;6283;51.330;12.374;2023-08-21T11:29:08;4.32;;;3.22;;
12437;SDS011;6283;51.330;12.374;2023-08-21T11:31:34;6.03;;;3.00;;
12437;SDS011;6283;51.330;12.374;2023-08-21T11:34:00;3.40;;;3.10;;
12437;SDS011;6283;51.330;12.374;2023-08-21T11:36:26;3.42;;;3.00;;
12437;SDS011;6283;51.330;12.374;2023-08-21T11:38:58;6.47;;;2.88;;
12437;SDS011;6283;51.330;12.374;2023-08-21T11:41:25;2.95;;;2.75;;
12437;SDS011;6283;51.330;12.374;2023-08-21T11:43:50;3.40;;;3.10;;
12437;SDS011;6283;51.330;12.374;2023-08-21T11:46:17;11.02;;;3.88;;
12437;SDS011;6283;51.330;12.374;2023-08-21T11:48:44;3.72;;;3.25;;
12437;SDS011;6283;51.330;12.374;2023-08-21T11:51:12;3.03;;;2.80;;
12437;SDS011;6283;51.330;12.374;2023-08-21T11:53:39;3.30;;;3.00;;
12437;SDS011;6283;51.330;12.374;2023-08-21T11:56:09;3.88;;;2.90;;
12437;SDS011;6283;51.330;12.374;2023-08-21T11:58:39;6.10;;;3.42;;
12437;SDS011;6283;51.330;12.374;2023-08-21T12:01:06;3.85;;;3.47;;
12437;SDS011;6283;51.330;12.374;2023-08-21T12:03:36;4.55;;;3.65;;
12437;SDS011;6283;51.330;12.374;2023-08-21T12:06:10;6.22;;;3.50;;
12437;SDS011;6283;51.330;12.374;2023-08-21T12:08:37;4.05;;;3.75;;
12437;SDS011;6283;51.330;12.374;2023-08-21T12:11:03;3.50;;;3.20;;
12437;SDS011;6283;51.330;12.374;2023-08-21T12:13:30;4.60;;;3.35;;
12437;SDS011;6283;51.330;12.374;2023-08-21T12:15:56;3.70;;;3.40;;
12437;SDS011;6283;51.330;12.374;2023-08-21T12:18:22;4.25;;;3.63;;
12437;SDS011;6283;51.330;12.374;2023-08-21T12:20:48;3.53;;;2.90;;
12437;SDS011;6283;51.330;12.374;2023-08-21T12:23:14;4.00;;;3.42;;
12437;SDS011;6283;51.330;12.374;2023-08-21T12:25:40;6.10;;;3.63;;
12437;SDS011;6283;51.330;12.374;2023-08-21T12:28:06;3.28;;;3.05;;
12437;SDS011;6283;51.330;12.374;2023-08-21T12:30:33;4.80;;;3.60;;
12437;SDS011;6283;51.330;12.374;2023-08-21T12:32:59;4.20;;;3.50;;
12437;SDS011;6283;51.330;12.374;2023-08-21T12:35:25;3.20;;;3.00;;
12437;SDS011;6283;51.330;12.374;2023-08-21T12:37:50;4.28;;;3.88;;
12437;SDS011;6283;51.330;12.374;2023-08-21T12:40:20;5.57;;;3.80;;
12437;SDS011;6283;51.330;12.374;2023-08-21T12:42:46;4.38;;;3.67;;
12437;SDS011;6283;51.330;12.374;2023-08-21T12:45:12;4.07;;;3.70;;
12437;SDS011;6283;51.330;12.374;2023-08-21T12:47:37;3.88;;;3.60;;
12437;SDS011;6283;51.330;12.374;2023-08-21T12:50:03;7.13;;;4.22;;
12437;SDS011;6283;51.330;12.374;2023-08-21T12:52:29;4.63;;;4.22;;
12437;SDS011;6283;51.330;12.374;2023-08-21T12:54:55;4.15;;;3.85;;
12437;SDS011;6283;51.330;12.374;2023-08-21T12:57:21;5.53;;;3.80;;
12437;SDS011;6283;51.330;12.374;2023-08-21T12:59:47;4.40;;;3.97;;
12437;SDS011;6283;51.330;12.374;2023-08-21T13:02:12;3.78;;;3.47;;
12437;SDS011;6283;51.330;12.374;2023-08-21T13:04:38;5.00;;;3.67;;
12437;SDS011;6283;51.330;12.374;2023-08-21T13:07:04;5.03;;;4.13;;
12437;SDS011;6283;51.330;12.374;2023-08-21T13:09:29;4.57;;;4.15;;
12437;SDS011;6283;51.330;12.374;2023-08-21T13:11:55;4.13;;;3.72;;
12437;SDS011;6283;51.330;12.374;2023-08-21T13:14:21;4.50;;;3.70;;
12437;SDS011;6283;51.330;12.374;2023-08-21T13:16:46;6.10;;;5.00;;
12437;SDS011;6283;51.330;12.374;2023-08-21T13:19:12;4.57;;;3.75;;
12437;SDS011;6283;51.330;12.374;2023-08-21T13:21:38;4.18;;;3.40;;
12437;SDS011;6283;51.330;12.374;2023-08-21T13:24:03;4.10;;;3.80;;
12437;SDS011;6283;51.330;12.374;2023-08-21T13:26:29;3.78;;;3.47;;
12437;SDS011;6283;51.330;12.374;2023-08-21T13:28:56;3.67;;;3.38;;
12437;SDS011;6283;51.330;12.374;2023-08-21T13:31:21;6.57;;;4.25;;
12437;SDS011;6283;51.330;12.374;2023-08-21T13:33:48;3.88;;;3.58;;
12437;SDS011;6283;51.330;12.374;2023-08-21T13:36:14;3.85;;;3.55;;
12437;SDS011;6283;51.330;12.374;2023-08-21T13:38:41;4.35;;;3.95;;
12437;SDS011;6283;51.330;12.374;2023-08-21T13:41:07;3.97;;;3.58;;
12437;SDS011;6283;51.330;12.374;2023-08-21T13:43:34;3.90;;;3.60;;
12437;SDS011;6283;51.330;12.374;2023-08-21T13:46:00;4.15;;;3.75;;
12437;SDS011;6283;51.330;12.374;2023-08-21T13:48:29;3.30;;;3.00;;
12437;SDS011;6283;51.330;12.374;2023-08-21T13:50:55;4.80;;;3.40;;
12437;SDS011;6283;51.330;12.374;2023-08-21T13:53:21;4.03;;;3.10;;
12437;SDS011;6283;51.330;12.374;2023-08-21T13:55:46;4.05;;;3.65;;
12437;SDS011;6283;51.330;12.374;2023-08-21T13:58:12;3.55;;;3.28;;
12437;SDS011;6283;51.330;12.374;2023-08-21T14:00:38;3.53;;;3.33;;
12437;SDS011;6283;51.330;12.374;2023-08-21T14:03:04;4.20;;;3.80;;
12437;SDS011;6283;51.330;12.374;2023-08-21T14:05:30;5.15;;;3.85;;
12437;SDS011;6283;51.330;12.374;2023-08-21T14:07:56;5.35;;;4.18;;
12437;SDS011;6283;51.330;12.374;2023-08-21T14:10:22;4.75;;;3.72;;
12437;SDS011;6283;51.330;12.374;2023-08-21T14:12:48;4.10;;;3.80;;
12437;SDS011;6283;51.330;12.374;2023-08-21T14:15:14;4.80;;;4.38;;
12437;SDS011;6283;51.330;12.374;2023-08-21T14:17:39;4.22;;;3.47;;
12437;SDS011;6283;51.330;12.374;2023-08-21T14:20:06;4.20;;;3.80;;
12437;SDS011;6283;51.330;12.374;2023-08-21T14:22:32;4.80;;;4.10;;
12437;SDS011;6283;51.330;12.374;2023-08-21T14:24:58;4.07;;;3.75;;
12437;SDS011;6283;51.330;12.374;2023-08-21T14:27:24;4.40;;;3.65;;
12437;SDS011;6283;51.330;12.374;2023-08-21T14:29:49;4.00;;;3.70;;
12437;SDS011;6283;51.330;12.374;2023-08-21T14:32:15;3.42;;;3.22;;
12437;SDS011;6283;51.330;12.374;2023-08-21T14:34:41;4.00;;;3.70;;
12437;SDS011;6283;51.330;12.374;2023-08-21T14:37:07;3.92;;;3.45;;
12437;SDS011;6283;51.330;12.374;2023-08-21T14:39:32;3.92;;;3.63;;
12437;SDS011;6283;51.330;12.374;2023-08-21T14:41:58;6.75;;;6.15;;
12437;SDS011;6283;51.330;12.374;2023-08-21T14:44:24;4.00;;;3.63;;
12437;SDS011;6283;51.330;12.374;2023-08-21T14:46:53;4.68;;;4.22;;
12437;SDS011;6283;51.330;12.374;2023-08-21T14:49:21;3.78;;;3.45;;
12437;SDS011;6283;51.330;12.374;2023-08-21T14:51:47;3.58;;;3.33;;
12437;SDS011;6283;51.330;12.374;2023-08-21T14:54:13;3.40;;;3.20;;
12437;SDS011;6283;51.330;12.374;2023-08-21T14:56:38;3.70;;;3.40;;
12437;SDS011;6283;51.330;12.374;2023-08-21T14:59:04;4.00;;;3.60;;
12437;SDS011;6283;51.330;12.374;2023-08-21T15:01:30;4.88;;;3.58;;
12437;SDS011;6283;51.330;12.374;2023-08-21T15:03:56;4.05;;;3.65;;
12437;SDS011;6283;51.330;12.374;2023-08-21T15:06:21;4.05;;;3.67;;
12437;SDS011;6283;51.330;12.374;2023-08-21T15:08:47;7.90;;;4.47;;
12437;SDS011;6283;51.330;12.374;2023-08-21T15:11:12;4.13;;;3.92;;
12437;SDS011;6283;51.330;12.374;2023-08-21T15:13:39;5.45;;;4.35;;